createdAt,value
2019-04-28T00:01:31.393Z,9.72
2019-04-28T00:04:03.431Z,9.71
2019-04-28T00:06:34.899Z,9.61
2019-04-28T00:09:06.844Z,9.68
2019-04-28T00:11:38.352Z,9.65
2019-04-28T00:14:11.852Z,9.44
2019-04-28T00:16:43.161Z,9.42
2019-04-28T00:19:14.393Z,9.35
2019-04-28T00:21:51.700Z,9.23
2019-04-28T00:24:41.701Z,9.28
2019-04-28T00:27:13.024Z,9.23
2019-04-28T00:29:46.143Z,9.23
2019-04-28T00:32:18.640Z,9.11
2019-04-28T00:34:51.181Z,8.98
2019-04-28T00:37:24.578Z,8.83
2019-04-28T00:39:55.910Z,8.74
2019-04-28T00:42:27.356Z,8.63
2019-04-28T00:44:58.699Z,8.68
2019-04-28T00:47:31.078Z,8.83
2019-04-28T00:50:04.935Z,8.93
2019-04-28T00:52:36.274Z,8.89
2019-04-28T00:55:07.688Z,8.97
2019-04-28T00:57:40.835Z,9.12
2019-04-28T01:00:13.570Z,9.25
2019-04-28T01:02:45.116Z,9.27
2019-04-28T01:05:16.445Z,9.19
2019-04-28T01:07:47.536Z,9.04
2019-04-28T01:10:21.085Z,8.96
2019-04-28T01:12:52.193Z,8.89
2019-04-28T01:15:30.671Z,8.78
2019-04-28T01:21:56.926Z,8.44
2019-04-28T01:24:29.758Z,8.24
2019-04-28T01:27:00.981Z,8.24
2019-04-28T01:29:32.222Z,8.36
2019-04-28T01:32:06.630Z,8.49
2019-04-28T01:34:37.833Z,8.61
2019-04-28T01:37:09.734Z,8.66
2019-04-28T01:39:41.338Z,8.82
2019-04-28T01:42:12.597Z,8.78
2019-04-28T01:44:43.836Z,8.74
2019-04-28T01:47:15.038Z,8.76
2019-04-28T01:49:46.250Z,8.78
2019-04-28T01:52:17.523Z,8.69
2019-04-28T01:54:50.197Z,8.76
2019-04-28T01:57:21.602Z,8.75
2019-04-28T01:59:52.676Z,8.85
2019-04-28T02:02:23.952Z,9.03
2019-04-28T02:04:55.396Z,9.13
2019-04-28T02:07:27.785Z,9.14
2019-04-28T02:10:00.742Z,9.16
2019-04-28T02:12:32.116Z,9.15
2019-04-28T02:15:05.244Z,9.22
2019-04-28T02:17:36.513Z,9.18
2019-04-28T02:20:07.955Z,9.13
2019-04-28T02:22:46.898Z,9.19
2019-04-28T02:25:19.695Z,9.18
2019-04-28T02:27:51.518Z,9.20
2019-04-28T02:30:40.930Z,9.10
2019-04-28T02:32:55.778Z,9.17
2019-04-28T02:35:26.781Z,9.13
2019-04-28T02:38:00.065Z,9.11
2019-04-28T02:40:31.207Z,9.17
2019-04-28T02:43:02.691Z,9.10
2019-04-28T02:45:34.930Z,8.91
2019-04-28T02:48:08.019Z,8.87
2019-04-28T02:50:43.795Z,8.86
2019-04-28T02:53:21.122Z,8.83
2019-04-28T02:55:52.497Z,8.87
2019-04-28T02:58:23.840Z,8.86
2019-04-28T03:01:07.365Z,8.84
2019-04-28T03:03:30.639Z,8.63
2019-04-28T03:06:01.811Z,8.57
2019-04-28T03:08:33.761Z,8.56
2019-04-28T03:11:05.033Z,8.49
2019-04-28T03:13:36.224Z,8.43
2019-04-28T03:16:07.455Z,8.30
2019-04-28T03:18:41.070Z,8.28
2019-04-28T03:21:11.826Z,8.21
2019-04-28T03:23:42.878Z,8.18
2019-04-28T03:26:33.765Z,8.14
2019-04-28T03:29:15.934Z,8.08
2019-04-28T03:32:15.596Z,7.99
2019-04-28T03:34:27.150Z,7.90
2019-04-28T03:37:00.324Z,7.84
2019-04-28T03:39:31.510Z,7.79
2019-04-28T03:42:02.949Z,7.79
2019-04-28T03:44:34.232Z,7.72
2019-04-28T03:47:05.494Z,7.72
2019-04-28T03:49:36.768Z,7.63
2019-04-28T03:52:10.519Z,7.56
2019-04-28T03:54:41.277Z,7.57
2019-04-28T03:57:12.471Z,7.55
2019-04-28T11:57:34.280Z,23.10
2019-04-28T12:00:07.707Z,23.51
2019-04-28T12:02:39.074Z,24.11
2019-04-28T12:05:10.397Z,24.35
2019-04-28T12:07:41.715Z,24.51
2019-04-28T12:10:16.609Z,24.62
2019-04-28T12:12:56.433Z,24.67
2019-04-28T12:15:32.490Z,24.70
2019-04-28T12:18:19.444Z,25.08
2019-04-28T12:20:50.767Z,25.07
2019-04-28T12:23:22.064Z,25.00
2019-04-28T12:25:53.620Z,24.92
2019-04-28T12:28:24.893Z,24.14
2019-04-28T12:30:56.107Z,24.22
2019-04-28T12:33:27.399Z,24.18
2019-04-28T12:35:58.846Z,23.70
2019-04-28T12:38:30.126Z,23.06
2019-04-28T12:41:01.328Z,22.46
2019-04-28T12:43:32.683Z,22.32
2019-04-28T12:46:04.050Z,22.44
2019-04-28T12:48:35.330Z,22.39
2019-04-28T12:51:06.730Z,22.52
2019-04-28T12:53:38.529Z,22.54
2019-04-28T12:56:09.852Z,22.30
2019-04-28T12:58:41.104Z,22.47
2019-04-28T13:01:17.052Z,22.44
2019-04-28T13:03:59.062Z,22.48
2019-04-28T13:06:30.234Z,22.76
2019-04-28T13:09:01.632Z,22.81
2019-04-28T13:11:36.688Z,22.58
2019-04-28T13:14:07.875Z,22.27
2019-04-28T13:16:39.294Z,22.54
2019-04-28T13:19:10.456Z,22.66
2019-04-28T13:21:41.766Z,22.61
2019-04-28T13:24:13.080Z,22.76
2019-04-28T13:26:44.401Z,22.67
2019-04-28T13:29:15.694Z,22.19
2019-04-28T13:31:46.924Z,21.77
2019-04-28T13:34:20.058Z,21.58
2019-04-28T13:36:51.173Z,20.91
2019-04-28T13:39:24.367Z,20.24
2019-04-28T13:41:55.346Z,19.96
2019-04-28T13:44:44.870Z,20.14
2019-04-28T13:47:16.209Z,20.06
2019-04-28T13:49:49.486Z,19.85
2019-04-28T13:52:20.743Z,19.87
2019-04-28T13:54:53.866Z,20.26
2019-04-28T13:57:25.006Z,20.59
2019-04-28T13:59:57.962Z,20.62
2019-04-28T14:02:45.933Z,20.42
2019-04-28T14:05:21.668Z,20.19
2019-04-28T14:07:52.959Z,19.70
2019-04-28T14:10:24.244Z,19.38
2019-04-28T14:12:55.675Z,19.99
2019-04-28T14:15:26.941Z,19.96
2019-04-28T14:17:58.128Z,19.87
2019-04-28T14:20:29.804Z,19.80
2019-04-28T14:23:01.057Z,20.35
2019-04-28T14:25:32.153Z,20.62
2019-04-28T14:28:03.383Z,20.68
2019-04-28T14:30:34.681Z,20.37
2019-04-28T14:33:06.484Z,20.05
2019-04-28T14:35:37.808Z,19.62
2019-04-28T14:38:09.085Z,19.28
2019-04-28T14:40:40.179Z,19.07
2019-04-28T14:43:11.550Z,18.98
2019-04-28T14:45:43.523Z,18.81
2019-04-28T14:48:14.838Z,18.70
2019-04-28T14:50:46.069Z,18.53
2019-04-28T14:53:17.226Z,18.47
2019-04-28T14:55:48.481Z,18.46
2019-04-28T14:58:19.670Z,18.41
2019-04-28T15:01:01.478Z,18.24
2019-04-28T15:03:34.758Z,18.12
2019-04-28T15:06:07.826Z,18.09
2019-04-28T15:08:52.931Z,18.02
2019-04-28T15:11:31.891Z,18.07
2019-04-28T15:14:03.057Z,18.09
2019-04-28T15:16:34.417Z,18.12
2019-04-28T15:19:05.840Z,18.16
2019-04-28T15:21:37.197Z,18.21
2019-04-28T15:24:08.320Z,18.24
2019-04-28T15:26:39.409Z,18.29
2019-04-28T15:29:10.593Z,18.33
2019-04-28T15:31:41.841Z,18.47
2019-04-28T15:34:12.964Z,18.58
2019-04-28T15:36:44.130Z,18.73
2019-04-28T15:39:15.355Z,18.78
2019-04-28T15:41:46.764Z,18.80
2019-04-28T15:44:17.903Z,18.73
2019-04-28T15:46:48.969Z,18.62
2019-04-28T15:49:20.113Z,18.48
2019-04-28T15:51:51.324Z,18.46
2019-04-28T15:54:23.680Z,18.47
2019-04-28T15:56:55.084Z,18.48
2019-04-28T15:59:26.270Z,18.54
2019-04-28T16:01:57.389Z,18.52
2019-04-28T16:04:28.612Z,18.51
2019-04-28T16:06:59.647Z,18.46
2019-04-28T16:09:30.852Z,18.40
2019-04-28T16:12:02.118Z,18.20
2019-04-28T16:14:33.392Z,18.19
2019-04-28T16:17:04.725Z,18.19
2019-04-28T16:19:36.053Z,18.17
2019-04-28T16:22:07.438Z,18.02
2019-04-28T16:24:38.689Z,17.94
2019-04-28T16:27:10.078Z,17.96
2019-04-28T16:29:41.316Z,17.83
2019-04-28T16:32:12.590Z,17.81
2019-04-28T16:34:43.918Z,17.78
2019-04-28T16:37:15.110Z,17.69
2019-04-28T16:39:46.140Z,17.60
2019-04-28T16:42:21.530Z,17.55
2019-04-28T16:44:53.667Z,17.53
2019-04-28T16:47:24.726Z,17.54
2019-04-28T16:49:55.863Z,17.49
2019-04-28T16:52:27.033Z,17.48
2019-04-28T16:55:03.841Z,17.49
2019-04-28T16:57:36.983Z,17.31
2019-04-28T17:00:10.621Z,17.19
2019-04-28T17:02:42.203Z,17.08
2019-04-28T17:05:14.324Z,16.87
2019-04-28T17:10:12.523Z,16.71
2019-04-28T17:12:43.997Z,16.70
2019-04-28T17:15:15.310Z,16.68
2019-04-28T17:17:47.262Z,16.65
2019-04-28T17:20:18.747Z,16.68
2019-04-28T17:22:49.912Z,16.69
2019-04-28T17:25:21.329Z,16.71
2019-04-28T17:27:52.689Z,16.70
2019-04-28T17:30:24.416Z,16.60
2019-04-28T17:32:55.736Z,16.50
2019-04-28T17:35:27.319Z,16.42
2019-04-28T17:38:06.363Z,16.38
2019-04-28T17:40:33.479Z,16.26
2019-04-28T17:43:06.349Z,15.92
2019-04-28T17:45:38.705Z,15.60
2019-04-28T17:48:12.873Z,15.53
2019-04-28T17:50:45.444Z,15.51
2019-04-28T17:53:17.778Z,15.46
2019-04-28T17:55:49.055Z,15.41
2019-04-28T17:58:20.064Z,15.34
2019-04-28T18:00:55.751Z,15.20
2019-04-28T18:03:40.949Z,14.99
2019-04-28T18:06:18.212Z,14.74
2019-04-28T18:08:49.859Z,14.58
2019-04-28T18:11:21.180Z,14.35
2019-04-28T18:13:52.596Z,14.21
2019-04-28T18:16:26.815Z,14.11
2019-04-28T18:19:00.546Z,14.02
2019-04-28T18:21:31.835Z,13.96
2019-04-28T18:24:03.388Z,13.94
2019-04-28T18:26:34.653Z,13.89
2019-04-28T18:29:05.712Z,13.83
2019-04-28T18:31:38.913Z,13.78
2019-04-28T18:34:23.950Z,13.71
2019-04-28T18:37:14.179Z,13.65
2019-04-28T18:40:05.437Z,13.55
2019-04-28T18:42:39.070Z,13.41
2019-04-28T18:45:11.186Z,13.30
2019-04-28T18:47:43.440Z,13.24
2019-04-28T18:50:15.057Z,13.23
2019-04-28T18:52:46.412Z,13.27
2019-04-28T18:55:17.501Z,13.34
2019-04-28T18:57:48.886Z,13.41
2019-04-28T19:00:22.865Z,13.45
2019-04-28T19:02:54.495Z,13.43
2019-04-28T19:05:28.753Z,13.38
2019-04-28T19:08:17.522Z,13.32
2019-04-28T19:11:02.767Z,13.28
2019-04-28T19:13:35.856Z,13.23
2019-04-28T19:16:08.962Z,13.20
2019-04-28T19:18:41.988Z,13.22
2019-04-28T19:21:13.263Z,13.21
2019-04-28T19:23:44.505Z,13.28
2019-04-28T19:26:15.877Z,13.32
2019-04-28T19:28:47.124Z,13.36
2019-04-28T19:31:18.371Z,13.32
2019-04-28T19:33:49.801Z,13.30
2019-04-28T19:36:21.131Z,13.26
2019-04-28T19:39:02.446Z,13.19
2019-04-28T19:41:25.289Z,13.15
2019-04-28T19:43:56.634Z,13.13
2019-04-28T19:46:27.848Z,13.12
2019-04-28T19:48:59.139Z,13.08
2019-04-28T19:51:32.107Z,13.04
2019-04-28T19:54:05.788Z,12.98
2019-04-28T19:56:39.100Z,12.90
2019-04-28T19:59:28.639Z,12.93
2019-04-28T20:02:02.256Z,12.94
2019-04-28T20:04:33.140Z,12.90
2019-04-28T20:07:04.266Z,12.87
2019-04-28T20:09:35.409Z,12.86
2019-04-28T20:12:06.679Z,12.88
2019-04-28T20:14:37.928Z,12.84
2019-04-28T20:17:09.331Z,12.76
2019-04-28T20:19:40.653Z,12.70
2019-04-28T20:22:11.953Z,12.65
2019-04-28T20:24:47.232Z,12.54
2019-04-28T20:27:16.342Z,12.42
2019-04-28T20:29:47.720Z,12.25
2019-04-28T20:32:19.130Z,12.11
2019-04-28T20:34:50.890Z,11.98
2019-04-28T20:37:32.720Z,11.86
2019-04-28T20:40:06.906Z,11.74
2019-04-28T20:42:45.943Z,11.57
2019-04-28T20:45:17.154Z,11.46
2019-04-28T20:47:48.435Z,11.36
2019-04-28T20:50:19.827Z,11.28
2019-04-28T20:52:50.884Z,11.18
2019-04-28T20:55:22.108Z,11.10
2019-04-28T20:57:53.420Z,11.01
2019-04-28T21:00:24.794Z,10.98
2019-04-28T21:02:56.094Z,10.94
2019-04-28T21:05:28.356Z,10.88
2019-04-28T21:07:59.596Z,10.87
2019-04-28T21:10:38.246Z,10.85
2019-04-28T21:13:05.591Z,10.82
2019-04-28T21:15:36.849Z,10.81
2019-04-28T21:18:07.985Z,10.80
2019-04-28T21:20:39.114Z,10.79
2019-04-28T21:23:10.121Z,10.77
2019-04-28T21:25:41.299Z,10.74
2019-04-28T21:28:12.449Z,10.70
2019-04-28T21:30:44.767Z,10.70
2019-04-28T21:33:16.064Z,10.69
2019-04-28T21:35:48.356Z,10.65
2019-04-28T21:38:19.631Z,10.64
2019-04-28T21:40:50.792Z,10.64
2019-04-28T21:43:23.929Z,10.65
2019-04-28T21:45:59.870Z,10.66
2019-04-28T21:48:41.759Z,10.64
2019-04-28T21:51:13.633Z,10.60
2019-04-28T21:53:44.853Z,10.53
2019-04-28T21:56:15.901Z,10.43
2019-04-28T21:58:47.143Z,10.39
2019-04-28T22:01:20.811Z,10.36
2019-04-28T22:03:52.146Z,10.32
2019-04-28T22:06:23.394Z,10.28
2019-04-28T22:08:54.740Z,10.26
2019-04-28T22:11:25.952Z,10.22
2019-04-28T22:13:57.132Z,10.16
2019-04-28T22:16:28.392Z,10.11
2019-04-28T22:18:59.569Z,10.05
2019-04-28T22:21:30.798Z,10.00
2019-04-28T22:24:06.863Z,9.97
2019-04-28T22:26:49.884Z,9.94
2019-04-28T22:29:21.021Z,9.94
2019-04-28T22:31:52.229Z,9.90
2019-04-28T22:34:23.524Z,9.86
2019-04-28T22:36:54.634Z,9.83
2019-04-28T22:39:25.813Z,9.80
2019-04-28T22:41:56.930Z,9.81
2019-04-28T22:44:28.213Z,9.82
2019-04-28T22:46:59.328Z,9.82
2019-04-28T22:49:30.493Z,9.80
2019-04-28T22:52:01.908Z,9.83
2019-04-28T22:54:46.982Z,9.88
2019-04-28T22:57:32.063Z,9.92
2019-04-28T23:00:08.346Z,9.89
2019-04-28T23:02:41.261Z,9.85
2019-04-28T23:05:12.426Z,9.75
2019-04-28T23:07:43.648Z,9.71
2019-04-28T23:10:15.238Z,9.71
2019-04-28T23:12:46.442Z,9.71
2019-04-28T23:15:17.658Z,9.76
2019-04-28T23:17:49.033Z,9.85
2019-04-28T23:20:20.276Z,10.05
2019-04-28T23:22:52.399Z,10.17
2019-04-28T23:25:23.708Z,10.28
2019-04-28T23:27:54.998Z,10.43
2019-04-28T23:30:32.958Z,10.61
2019-04-28T23:33:04.330Z,10.75
2019-04-28T23:35:35.429Z,10.81
2019-04-28T23:38:06.680Z,10.86
2019-04-28T23:40:40.066Z,10.92
2019-04-28T23:43:19.017Z,10.98
2019-04-28T23:45:50.182Z,11.03
2019-04-28T23:48:21.452Z,11.03
2019-04-28T23:50:54.436Z,11.10
2019-04-28T23:53:44.143Z,11.13
2019-04-28T23:56:15.462Z,11.14
2019-04-28T23:58:46.663Z,11.14
